createdAt,value
2018-12-18T00:01:56.587Z,1.73
2018-12-18T00:04:26.936Z,2.17
2018-12-18T00:06:57.286Z,1.73
2018-12-18T00:09:25.636Z,1.83
2018-12-18T00:11:59.254Z,1.93
2018-12-18T00:14:24.535Z,2.00
2018-12-18T00:16:52.817Z,2.00
2018-12-18T00:19:21.133Z,1.93
2018-12-18T00:21:49.443Z,2.10
2018-12-18T00:24:17.751Z,2.10
2018-12-18T00:26:46.027Z,2.03
2018-12-18T00:29:14.356Z,2.10
2018-12-18T00:31:42.897Z,2.20
2018-12-18T00:34:11.225Z,2.10
2018-12-18T00:36:39.565Z,2.40
2018-12-18T00:39:12.345Z,2.23
2018-12-18T00:41:40.862Z,2.23
2018-12-18T00:44:09.229Z,1.90
2018-12-18T00:46:37.617Z,2.07
2018-12-18T00:49:06.155Z,1.90
2018-12-18T00:51:34.541Z,2.10
2018-12-18T00:54:02.832Z,1.97
2018-12-18T00:56:31.267Z,1.90
2018-12-18T00:58:59.865Z,2.10
2018-12-18T01:01:28.191Z,1.80
2018-12-18T01:03:56.490Z,2.07
2018-12-18T01:06:24.804Z,1.73
2018-12-18T01:08:53.263Z,1.77
2018-12-18T01:11:21.555Z,1.60
2018-12-18T01:13:49.870Z,1.80
2018-12-18T01:16:18.431Z,1.70
2018-12-18T01:18:49.104Z,1.73
2018-12-18T01:21:17.562Z,1.90
2018-12-18T01:23:45.911Z,1.70
2018-12-18T01:26:14.300Z,1.80
2018-12-18T01:28:42.938Z,1.80
2018-12-18T01:31:11.576Z,1.80
2018-12-18T01:33:39.896Z,1.60
2018-12-18T01:36:08.188Z,2.27
2018-12-18T01:38:40.205Z,1.77
2018-12-18T01:41:08.491Z,2.10
2018-12-18T01:43:36.776Z,1.87
2018-12-18T01:46:05.076Z,1.80
2018-12-18T01:48:33.531Z,1.97
2018-12-18T01:51:01.933Z,1.73
2018-12-18T01:53:30.465Z,1.90
2018-12-18T01:55:58.741Z,2.60
2018-12-18T01:58:27.071Z,2.70
2018-12-18T02:00:55.480Z,3.40
2018-12-18T02:03:23.881Z,3.43
2018-12-18T02:05:52.439Z,3.40
2018-12-18T02:08:20.782Z,3.53
2018-12-18T02:10:49.080Z,3.57
2018-12-18T02:13:17.735Z,3.43
2018-12-18T02:15:46.057Z,3.33
2018-12-18T02:18:14.540Z,3.40
2018-12-18T02:20:42.845Z,3.10
2018-12-18T02:23:11.176Z,3.20
2018-12-18T02:25:39.493Z,3.10
2018-12-18T02:28:07.876Z,3.03
2018-12-18T02:30:36.153Z,3.17
2018-12-18T02:33:04.831Z,2.90
2018-12-18T02:35:33.212Z,2.50
2018-12-18T02:38:01.500Z,2.90
2018-12-18T02:40:29.899Z,2.70
2018-12-18T02:42:58.199Z,2.87
2018-12-18T02:45:26.514Z,3.60
2018-12-18T02:47:54.804Z,3.17
2018-12-18T02:50:23.143Z,3.30
2018-12-18T02:52:51.404Z,3.30
2018-12-18T02:55:19.712Z,3.30
2018-12-18T02:57:49.079Z,3.40
2018-12-18T03:00:17.356Z,3.20
2018-12-18T03:02:45.692Z,3.17
2018-12-18T03:05:14.203Z,3.00
2018-12-18T03:07:42.553Z,2.87
2018-12-18T03:10:10.867Z,2.90
2018-12-18T03:12:39.163Z,3.10
2018-12-18T03:15:07.623Z,3.57
2018-12-18T03:17:36.024Z,3.37
2018-12-18T03:20:04.486Z,3.30
2018-12-18T03:22:32.882Z,3.60
2018-12-18T03:25:01.474Z,2.40
2018-12-18T03:27:30.706Z,2.50
2018-12-18T03:29:59.001Z,2.93
2018-12-18T03:32:32.005Z,3.03
2018-12-18T03:35:00.342Z,2.20
2018-12-18T03:37:28.659Z,2.10
2018-12-18T03:39:57.993Z,1.90
2018-12-18T03:42:26.357Z,1.73
2018-12-18T03:44:54.656Z,2.30
2018-12-18T03:47:22.972Z,2.60
2018-12-18T03:49:51.269Z,2.47
2018-12-18T03:52:19.588Z,2.60
2018-12-18T03:54:47.855Z,2.47
2018-12-18T03:57:16.160Z,2.67
2018-12-18T03:59:44.543Z,2.63
2018-12-18T04:02:13.121Z,2.40
2018-12-18T04:04:41.756Z,2.10
2018-12-18T04:07:11.133Z,1.90
2018-12-18T04:09:39.587Z,1.77
2018-12-18T04:12:09.078Z,1.57
2018-12-18T04:14:37.473Z,1.70
2018-12-18T04:17:05.961Z,1.60
2018-12-18T04:19:34.271Z,1.80
2018-12-18T04:22:02.548Z,1.53
2018-12-18T04:24:30.904Z,1.43
2018-12-18T04:26:59.243Z,1.63
2018-12-18T04:29:27.529Z,1.70
2018-12-18T04:31:55.831Z,1.60
2018-12-18T04:34:24.128Z,1.50
2018-12-18T04:36:52.411Z,1.50
2018-12-18T04:39:20.733Z,1.73
2018-12-18T04:41:49.025Z,1.70
2018-12-18T04:44:17.299Z,1.70
2018-12-18T04:46:45.704Z,1.70
2018-12-18T04:49:13.980Z,1.70
2018-12-18T04:51:42.264Z,1.50
2018-12-18T04:54:10.635Z,1.80
2018-12-18T04:56:38.953Z,1.80
2018-12-18T04:59:07.247Z,1.90
2018-12-18T05:01:35.569Z,1.80
2018-12-18T05:04:03.971Z,1.80
2018-12-18T05:06:32.456Z,1.83
2018-12-18T05:09:00.767Z,1.60
2018-12-18T05:11:29.096Z,1.70
2018-12-18T05:13:57.915Z,1.80
2018-12-18T05:16:26.191Z,1.80
2018-12-18T05:18:54.563Z,1.60
2018-12-18T05:21:23.124Z,1.53
2018-12-18T05:23:51.444Z,1.60
2018-12-18T05:26:19.727Z,1.53
2018-12-18T05:28:48.028Z,1.60
2018-12-18T05:31:18.136Z,1.90
2018-12-18T05:33:46.513Z,1.90
2018-12-18T05:36:14.820Z,1.53
2018-12-18T05:38:43.124Z,2.07
2018-12-18T05:41:11.455Z,1.70
2018-12-18T05:43:39.804Z,1.90
2018-12-18T05:46:08.129Z,1.90
2018-12-18T05:48:36.470Z,1.90
2018-12-18T05:51:04.932Z,1.90
2018-12-18T05:53:34.660Z,2.33
2018-12-18T05:56:02.975Z,2.00
2018-12-18T05:58:31.297Z,2.13
2018-12-18T06:00:59.590Z,2.30
2018-12-18T06:03:27.886Z,2.00
2018-12-18T06:05:56.192Z,2.10
2018-12-18T06:08:24.476Z,2.17
2018-12-18T06:10:52.985Z,2.75
2018-12-18T06:13:21.343Z,2.50
2018-12-18T06:15:50.049Z,2.50
2018-12-18T06:18:18.391Z,2.47
2018-12-18T06:20:46.731Z,2.90
2018-12-18T06:23:15.856Z,2.73
2018-12-18T06:25:44.587Z,3.10
2018-12-18T06:28:12.947Z,3.00
2018-12-18T06:30:41.332Z,2.93
2018-12-18T06:33:09.624Z,3.80
2018-12-18T06:35:37.975Z,3.53
2018-12-18T06:38:06.292Z,3.73
2018-12-18T06:40:34.741Z,3.00
2018-12-18T06:43:03.165Z,2.60
2018-12-18T06:45:31.500Z,2.87
2018-12-18T06:47:59.849Z,3.30
2018-12-18T06:50:28.452Z,3.27
2018-12-18T06:52:56.832Z,3.60
2018-12-18T06:55:25.804Z,3.40
2018-12-18T06:57:54.245Z,4.00
2018-12-18T07:00:22.608Z,3.10
2018-12-18T07:02:51.136Z,2.50
2018-12-18T07:05:20.378Z,5.00
2018-12-18T07:07:48.737Z,4.00
2018-12-18T07:10:17.085Z,4.17
2018-12-18T07:12:45.391Z,4.20
2018-12-18T07:15:13.756Z,3.70
2018-12-18T07:17:42.348Z,3.53
2018-12-18T07:20:10.822Z,3.40
2018-12-18T07:22:39.199Z,3.43
2018-12-18T07:25:07.510Z,3.63
2018-12-18T07:27:36.008Z,3.97
2018-12-18T07:30:04.924Z,3.90
2018-12-18T07:32:33.382Z,4.60
2018-12-18T07:35:01.694Z,4.20
2018-12-18T07:37:30.047Z,5.00
2018-12-18T07:39:58.331Z,3.40
2018-12-18T07:42:26.644Z,5.20
2018-12-18T07:44:55.057Z,4.90
2018-12-18T07:47:23.410Z,5.23
2018-12-18T07:49:51.733Z,6.10
2018-12-18T07:52:20.112Z,5.50
2018-12-18T07:54:48.416Z,5.50
2018-12-18T07:57:16.707Z,5.90
2018-12-18T07:59:45.142Z,6.33
2018-12-18T08:02:13.455Z,6.60
2018-12-18T08:04:41.768Z,5.83
2018-12-18T08:07:10.097Z,5.40
2018-12-18T08:09:38.413Z,6.20
2018-12-18T08:12:06.754Z,4.77
2018-12-18T08:14:35.040Z,5.00
2018-12-18T08:17:03.361Z,4.77
2018-12-18T08:19:31.688Z,5.53
2018-12-18T08:22:00.040Z,5.00
2018-12-18T08:24:28.572Z,4.70
2018-12-18T08:26:57.041Z,4.70
2018-12-18T08:29:25.404Z,5.00
2018-12-18T08:31:53.683Z,4.30
2018-12-18T08:34:22.004Z,4.77
2018-12-18T08:36:50.379Z,5.20
2018-12-18T08:39:18.928Z,4.77
2018-12-18T08:41:47.367Z,5.50
2018-12-18T08:44:15.711Z,6.20
2018-12-18T08:46:44.521Z,6.57
2018-12-18T08:49:12.872Z,6.87
2018-12-18T08:51:41.347Z,7.13
2018-12-18T08:54:10.841Z,6.80
2018-12-18T08:56:39.574Z,5.70
2018-12-18T08:59:08.085Z,4.40
2018-12-18T09:01:36.548Z,3.90
2018-12-18T09:04:05.234Z,4.27
2018-12-18T09:06:33.552Z,4.03
2018-12-18T09:09:02.047Z,4.47
2018-12-18T09:11:32.435Z,3.60
2018-12-18T09:14:00.856Z,3.60
2018-12-18T09:16:35.009Z,3.30
2018-12-18T09:19:04.428Z,2.87
2018-12-18T09:21:33.037Z,3.10
2018-12-18T09:24:01.370Z,2.80
2018-12-18T09:26:29.699Z,2.80
2018-12-18T09:28:57.998Z,2.50
2018-12-18T09:31:26.315Z,2.50
2018-12-18T09:33:54.639Z,2.40
2018-12-18T09:36:22.983Z,2.30
2018-12-18T09:38:56.752Z,2.40
2018-12-18T09:41:25.159Z,2.50
2018-12-18T09:43:58.328Z,2.40
2018-12-18T09:46:26.709Z,2.50
2018-12-18T09:48:55.036Z,2.40
2018-12-18T09:51:23.387Z,2.03
2018-12-18T09:53:51.712Z,2.10
2018-12-18T09:56:20.014Z,2.23
2018-12-18T09:58:48.540Z,2.20
2018-12-18T10:01:16.857Z,2.20
2018-12-18T10:03:45.175Z,2.30
2018-12-18T10:06:13.581Z,2.27
2018-12-18T10:08:41.892Z,2.17
2018-12-18T10:11:10.448Z,2.30
2018-12-18T10:13:38.769Z,2.53
2018-12-18T10:16:07.164Z,2.20
2018-12-18T10:18:35.511Z,2.20
2018-12-18T10:21:03.960Z,2.13
2018-12-18T10:23:33.529Z,2.10
2018-12-18T10:26:01.904Z,2.37
2018-12-18T10:28:31.467Z,2.10
2018-12-18T10:30:59.823Z,2.10
2018-12-18T10:33:28.560Z,2.10
2018-12-18T10:36:02.918Z,2.07
2018-12-18T10:38:30.248Z,1.93
2018-12-18T10:40:59.732Z,1.90
2018-12-18T10:43:28.030Z,2.00
2018-12-18T10:45:56.377Z,2.30
2018-12-18T10:48:24.800Z,2.10
2018-12-18T10:50:53.413Z,2.47
2018-12-18T10:53:21.760Z,2.10
2018-12-18T10:55:50.191Z,2.10
2018-12-18T10:58:24.007Z,2.40
2018-12-18T11:01:56.226Z,2.00
2018-12-18T11:04:24.576Z,1.83
2018-12-18T11:06:52.917Z,2.00
2018-12-18T11:09:23.289Z,1.90
2018-12-18T11:11:51.639Z,2.00
2018-12-18T11:14:19.992Z,1.97
2018-12-18T11:16:48.320Z,2.00
2018-12-18T11:19:16.732Z,1.83
2018-12-18T11:21:45.088Z,2.23
2018-12-18T11:24:13.483Z,2.00
2018-12-18T11:26:41.787Z,2.00
2018-12-18T11:29:10.115Z,2.00
2018-12-18T11:31:38.508Z,2.17
2018-12-18T11:34:06.854Z,2.17
2018-12-18T11:36:35.190Z,2.50
2018-12-18T11:39:06.260Z,1.80
2018-12-18T11:41:36.739Z,2.07
2018-12-18T11:44:05.146Z,2.60
2018-12-18T11:46:33.482Z,2.10
2018-12-18T11:49:01.795Z,2.20
2018-12-18T11:51:30.093Z,2.17
2018-12-18T11:53:58.411Z,1.90
2018-12-18T11:56:26.791Z,2.20
2018-12-18T11:58:55.088Z,2.03
2018-12-18T12:01:23.641Z,1.90
2018-12-18T12:03:52.251Z,2.10
2018-12-18T12:06:23.225Z,2.10
2018-12-18T12:08:51.797Z,2.23
2018-12-18T12:11:20.216Z,2.17
2018-12-18T12:13:48.743Z,2.30
2018-12-18T12:16:17.044Z,2.33
2018-12-18T12:18:45.445Z,2.20
2018-12-18T12:21:13.826Z,2.43
2018-12-18T12:23:42.145Z,2.53
2018-12-18T12:26:16.047Z,2.30
2018-12-18T12:28:44.372Z,2.30
2018-12-18T12:31:12.732Z,2.40
2018-12-18T12:33:41.075Z,2.20
2018-12-18T12:36:09.531Z,2.53
2018-12-18T12:38:39.072Z,2.70
2018-12-18T12:41:07.639Z,2.60
2018-12-18T12:43:36.233Z,2.60
2018-12-18T12:46:04.773Z,2.60
2018-12-18T12:48:38.716Z,2.30
2018-12-18T12:51:07.114Z,2.43
2018-12-18T12:53:35.464Z,2.50
2018-12-18T12:56:04.001Z,2.47
2018-12-18T12:58:32.397Z,2.67
2018-12-18T13:01:01.166Z,2.47
2018-12-18T13:03:31.449Z,2.07
2018-12-18T13:05:59.869Z,2.23
2018-12-18T13:08:29.985Z,2.30
2018-12-18T13:10:58.650Z,2.27
2018-12-18T13:13:27.048Z,2.47
2018-12-18T13:15:55.860Z,2.17
2018-12-18T13:18:24.358Z,2.20
2018-12-18T13:20:53.382Z,2.20
2018-12-18T13:23:23.859Z,2.10
2018-12-18T13:25:53.496Z,2.00
2018-12-18T13:28:22.683Z,2.33
2018-12-18T13:30:52.525Z,2.10
2018-12-18T13:33:21.810Z,2.17
2018-12-18T13:35:51.177Z,2.30
2018-12-18T13:38:21.862Z,2.10
2018-12-18T13:40:52.396Z,2.10
2018-12-18T13:43:21.562Z,2.17
2018-12-18T13:45:50.954Z,2.10
2018-12-18T13:48:20.315Z,2.20
2018-12-18T13:50:49.635Z,2.53
2018-12-18T13:53:24.667Z,2.10
2018-12-18T13:55:53.939Z,2.30
2018-12-18T13:58:23.159Z,2.60
2018-12-18T14:00:52.357Z,2.50
2018-12-18T14:03:21.423Z,2.53
2018-12-18T14:05:50.770Z,2.60
2018-12-18T14:08:20.067Z,2.57
2018-12-18T14:10:49.559Z,3.00
2018-12-18T14:13:18.711Z,2.67
2018-12-18T14:15:47.932Z,3.00
2018-12-18T14:18:17.007Z,2.87
2018-12-18T14:20:46.510Z,3.30
2018-12-18T14:23:15.718Z,2.60
2018-12-18T14:25:44.838Z,3.13
2018-12-18T14:28:13.950Z,3.30
2018-12-18T14:30:43.056Z,3.80
2018-12-18T14:33:12.174Z,5.93
2018-12-18T14:35:41.290Z,5.60
2018-12-18T14:38:10.398Z,2.37
2018-12-18T14:40:39.438Z,2.30
2018-12-18T14:43:08.621Z,2.20
2018-12-18T14:45:38.149Z,2.50
2018-12-18T14:48:07.406Z,2.20
2018-12-18T14:50:36.835Z,2.40
2018-12-18T14:53:06.106Z,3.53
2018-12-18T14:55:35.318Z,3.20
2018-12-18T14:58:04.465Z,3.30
2018-12-18T15:00:33.521Z,3.27
2018-12-18T15:03:02.634Z,3.30
2018-12-18T15:05:31.780Z,4.73
2018-12-18T15:08:00.911Z,4.70
2018-12-18T15:10:30.767Z,3.80
2018-12-18T15:12:59.851Z,3.80
2018-12-18T15:15:28.998Z,4.30
2018-12-18T15:17:58.142Z,4.83
2018-12-18T15:20:28.007Z,9.00
2018-12-18T15:22:57.435Z,10.20
2018-12-18T15:25:26.519Z,6.07
2018-12-18T15:27:55.634Z,6.07
2018-12-18T15:30:26.269Z,6.70
2018-12-18T15:32:55.467Z,3.90
2018-12-18T15:35:24.975Z,3.93
2018-12-18T15:37:54.198Z,3.70
2018-12-18T15:40:23.473Z,6.67
2018-12-18T15:42:52.842Z,5.40
2018-12-18T15:45:21.947Z,4.90
2018-12-18T15:47:51.270Z,3.70
2018-12-18T15:50:20.471Z,5.07
2018-12-18T15:52:49.565Z,6.90
2018-12-18T15:55:18.780Z,11.30
2018-12-18T15:57:47.943Z,14.63
2018-12-18T16:00:17.197Z,12.77
2018-12-18T16:02:46.417Z,11.03
2018-12-18T16:05:15.547Z,4.67
2018-12-18T16:07:44.782Z,4.20
2018-12-18T16:10:13.892Z,7.30
2018-12-18T16:12:48.364Z,6.17
2018-12-18T16:15:17.487Z,9.00
2018-12-18T16:17:46.698Z,7.10
2018-12-18T16:20:17.966Z,9.07
2018-12-18T16:22:51.590Z,11.47
2018-12-18T16:25:20.723Z,14.07
2018-12-18T16:27:49.828Z,13.03
2018-12-18T16:30:19.071Z,12.90
2018-12-18T16:32:48.171Z,12.40
2018-12-18T16:35:17.331Z,11.10
2018-12-18T16:37:46.438Z,9.57
2018-12-18T16:40:17.419Z,9.83
2018-12-18T16:42:47.890Z,10.83
2018-12-18T16:45:18.727Z,11.70
2018-12-18T16:47:47.963Z,12.27
2018-12-18T16:50:17.657Z,12.40
2018-12-18T16:52:46.798Z,14.03
2018-12-18T16:55:15.923Z,9.23
2018-12-18T16:57:45.095Z,8.00
2018-12-18T17:00:14.394Z,8.40
2018-12-18T17:02:44.994Z,9.00
2018-12-18T17:05:14.252Z,9.00
2018-12-18T17:07:43.311Z,9.27
2018-12-18T17:10:12.402Z,7.53
2018-12-18T17:12:46.322Z,9.17
2018-12-18T17:15:22.329Z,10.20
2018-12-18T17:17:51.402Z,9.80
2018-12-18T17:20:20.563Z,9.93
2018-12-18T17:22:49.850Z,9.43
2018-12-18T17:25:18.918Z,9.50
2018-12-18T17:27:49.141Z,8.80
2018-12-18T17:30:18.334Z,8.37
2018-12-18T17:32:47.476Z,9.03
2018-12-18T17:35:16.628Z,13.20
2018-12-18T17:37:45.779Z,8.70
2018-12-18T17:40:14.850Z,9.57
2018-12-18T17:42:43.939Z,8.00
2018-12-18T17:45:13.934Z,10.27
2018-12-18T17:47:43.058Z,6.60
2018-12-18T17:50:12.128Z,5.37
2018-12-18T17:52:41.244Z,3.67
2018-12-18T17:55:10.408Z,3.10
2018-12-18T17:57:39.555Z,2.83
2018-12-18T18:00:08.830Z,2.77
2018-12-18T18:02:37.934Z,3.00
2018-12-18T18:05:07.012Z,3.10
2018-12-18T18:07:42.682Z,3.60
2018-12-18T18:10:07.431Z,3.97
2018-12-18T18:12:36.621Z,2.97
2018-12-18T18:15:05.872Z,3.47
2018-12-18T18:17:35.151Z,3.70
2018-12-18T18:20:05.479Z,4.40
2018-12-18T18:22:36.027Z,3.37
2018-12-18T18:25:05.398Z,6.00
2018-12-18T18:27:34.546Z,8.53
2018-12-18T18:30:05.200Z,6.77
2018-12-18T18:32:34.446Z,9.50
2018-12-18T18:35:03.620Z,12.83
2018-12-18T18:37:32.753Z,6.50
2018-12-18T18:40:01.831Z,9.87
2018-12-18T18:42:33.816Z,6.73
2018-12-18T18:45:02.924Z,5.37
2018-12-18T18:47:33.095Z,6.13
2018-12-18T18:50:02.227Z,6.87
2018-12-18T18:55:30.055Z,9.10
2018-12-18T19:18:53.153Z,5.10
2018-12-18T19:21:24.275Z,4.47
2018-12-18T19:23:53.465Z,4.13
2018-12-18T19:26:22.540Z,3.30
2018-12-18T19:28:52.193Z,3.83
2018-12-18T19:42:00.851Z,10.40
2018-12-18T19:44:29.997Z,9.73
2018-12-18T19:46:59.084Z,10.07
2018-12-18T19:49:28.176Z,10.40
2018-12-18T19:51:57.354Z,9.60
2018-12-18T19:54:26.460Z,10.50
2018-12-18T19:56:55.521Z,10.10
2018-12-18T19:59:24.627Z,7.90
2018-12-18T20:01:53.711Z,7.40
2018-12-18T20:04:53.148Z,9.50
2018-12-18T20:07:22.330Z,4.43
2018-12-18T20:09:52.336Z,3.60
2018-12-18T20:12:22.304Z,5.97
2018-12-18T20:14:52.148Z,4.97
2018-12-18T20:17:20.760Z,4.10
2018-12-18T20:19:49.323Z,4.20
2018-12-18T20:22:17.928Z,4.77
2018-12-18T20:24:46.369Z,6.73
2018-12-18T20:27:14.978Z,6.37
2018-12-18T20:29:43.387Z,7.00
2018-12-18T20:32:11.881Z,7.23
2018-12-18T20:34:40.380Z,6.90
2018-12-18T20:37:08.760Z,8.43
2018-12-18T20:39:37.178Z,11.17
2018-12-18T20:42:05.536Z,10.33
2018-12-18T20:44:33.950Z,10.37
2018-12-18T20:47:02.419Z,9.93
2018-12-18T20:49:30.852Z,10.00
2018-12-18T20:52:00.037Z,9.97
2018-12-18T20:54:28.425Z,10.03
2018-12-18T20:56:56.916Z,8.53
2018-12-18T20:59:25.316Z,5.20
2018-12-18T21:01:53.680Z,4.10
2018-12-18T21:04:22.424Z,4.40
2018-12-18T21:06:50.950Z,4.70
2018-12-18T21:09:19.283Z,4.97
2018-12-18T21:11:47.670Z,5.30
2018-12-18T21:14:16.992Z,5.03
2018-12-18T21:16:45.343Z,5.83
2018-12-18T21:19:13.683Z,5.73
2018-12-18T21:21:42.042Z,4.63
2018-12-18T21:24:10.431Z,4.43
2018-12-18T21:26:38.762Z,5.53
2018-12-18T21:29:07.357Z,4.30
2018-12-18T21:31:36.351Z,6.40
2018-12-18T21:34:04.930Z,5.60
2018-12-18T21:36:33.313Z,4.40
2018-12-18T21:39:01.662Z,4.27
2018-12-18T21:41:32.033Z,4.50
2018-12-18T21:44:00.328Z,4.50
2018-12-18T21:46:28.706Z,4.10
2018-12-18T21:48:57.272Z,4.27
2018-12-18T21:51:25.582Z,4.20
2018-12-18T21:53:53.875Z,4.50
2018-12-18T21:56:22.282Z,4.60
2018-12-18T21:58:50.650Z,4.07
2018-12-18T22:01:19.554Z,4.60
2018-12-18T22:03:47.921Z,4.73
2018-12-18T22:06:16.282Z,4.70
2018-12-18T22:08:44.653Z,4.83
2018-12-18T22:11:13.044Z,4.77
2018-12-18T22:13:41.349Z,4.10
2018-12-18T22:16:09.685Z,4.17
2018-12-18T22:18:38.026Z,3.90
2018-12-18T22:21:06.419Z,4.43
2018-12-18T22:23:34.728Z,4.17
2018-12-18T22:26:03.134Z,3.87
2018-12-18T22:28:31.440Z,3.80
2018-12-18T22:31:00.717Z,3.90
2018-12-18T22:33:29.016Z,4.07
2018-12-18T22:35:57.345Z,3.97
2018-12-18T22:38:25.663Z,4.30
2018-12-18T22:40:53.990Z,2.50
2018-12-18T22:43:22.379Z,4.50
2018-12-18T22:45:51.763Z,3.93
2018-12-18T22:48:21.940Z,3.87
2018-12-18T22:50:50.298Z,3.00
2018-12-18T22:53:18.636Z,4.10
2018-12-18T22:55:46.969Z,3.97
2018-12-18T22:58:15.316Z,3.73
2018-12-18T23:00:53.093Z,3.80
2018-12-18T23:03:22.485Z,3.53
2018-12-18T23:05:51.021Z,3.97
2018-12-18T23:08:19.376Z,4.00
2018-12-18T23:10:47.723Z,3.87
2018-12-18T23:13:21.605Z,3.40
2018-12-18T23:15:50.166Z,3.43
2018-12-18T23:18:18.544Z,3.73
2018-12-18T23:20:46.869Z,3.60
2018-12-18T23:23:15.256Z,3.60
2018-12-18T23:25:43.754Z,2.63
2018-12-18T23:28:12.095Z,3.30
2018-12-18T23:30:40.441Z,3.53
2018-12-18T23:33:08.777Z,3.70
2018-12-18T23:35:37.075Z,3.63
2018-12-18T23:38:05.384Z,3.73
2018-12-18T23:40:33.796Z,4.00
2018-12-18T23:43:02.099Z,3.90
2018-12-18T23:45:30.443Z,4.00
2018-12-18T23:47:58.727Z,3.83
2018-12-18T23:50:27.071Z,3.80
2018-12-18T23:52:55.493Z,3.83
2018-12-18T23:55:23.938Z,3.90
2018-12-18T23:57:52.339Z,4.00
